Terminal Aerodrome Forecast
Issued by NWS

Home | Current Version | Previous Version | Text Only | Print | Product List | Glossary On
Versions: 1 2 3 4 5 6 7 8 9 10 11 12 13 14 15 16 17 18
000
FTUS45 KCYS 271739
TAFLAR
TAF
KLAR 271739Z 2718/2818 34011KT P6SM VCSH SCT025 BKN035
      TEMPO 2718/2720 34015G25KT -SHRA BKN025 OVC035
     FM272200 33010KT P6SM BKN050
     FM280200 24005KT P6SM SKC=

USA.gov is the U.S. government's official web portal to all federal, state and local government web resources and services.